createdAt,value
2019-02-14T00:01:10.722Z,6.00
2019-02-14T00:03:39.299Z,5.90
2019-02-14T00:06:07.885Z,5.90
2019-02-14T00:08:36.430Z,5.90
2019-02-14T00:11:05.079Z,6.00
2019-02-14T00:13:33.643Z,5.90
2019-02-14T00:16:02.220Z,5.90
2019-02-14T00:18:30.933Z,6.10
2019-02-14T00:20:59.511Z,6.40
2019-02-14T00:23:28.177Z,6.40
2019-02-14T00:25:56.824Z,6.30
2019-02-14T00:28:25.466Z,6.10
2019-02-14T00:30:54.143Z,5.90
2019-02-14T00:33:22.843Z,5.80
2019-02-14T00:35:51.481Z,5.80
2019-02-14T00:38:20.041Z,5.70
2019-02-14T00:40:48.708Z,5.70
2019-02-14T00:43:17.355Z,5.70
2019-02-14T00:45:45.939Z,5.70
2019-02-14T00:48:14.577Z,5.80
2019-02-14T00:50:43.141Z,5.80
2019-02-14T00:53:11.701Z,5.90
2019-02-14T00:55:40.373Z,5.70
2019-02-14T00:58:08.987Z,5.50
2019-02-14T01:00:37.561Z,5.40
2019-02-14T01:03:06.213Z,5.50
2019-02-14T01:05:34.886Z,5.50
2019-02-14T01:08:03.437Z,5.50
2019-02-14T01:10:32.032Z,5.50
2019-02-14T01:13:00.583Z,5.60
2019-02-14T01:15:29.343Z,5.60
2019-02-14T01:17:57.935Z,5.50
2019-02-14T01:20:26.648Z,5.50
2019-02-14T01:22:55.362Z,5.50
2019-02-14T01:25:23.925Z,5.30
2019-02-14T01:27:52.511Z,5.30
2019-02-14T01:30:21.211Z,5.20
2019-02-14T01:32:49.869Z,5.10
2019-02-14T01:35:18.524Z,5.20
2019-02-14T01:37:48.259Z,5.30
2019-02-14T01:40:17.079Z,5.40
2019-02-14T01:42:45.625Z,5.40
2019-02-14T01:45:14.253Z,5.50
2019-02-14T01:47:42.831Z,5.50
2019-02-14T01:50:11.938Z,5.50
2019-02-14T01:52:40.590Z,5.50
2019-02-14T01:55:09.369Z,5.60
2019-02-14T01:57:37.996Z,5.40
2019-02-14T02:00:13.441Z,5.40
2019-02-14T02:02:41.991Z,5.30
2019-02-14T02:05:10.606Z,5.30
2019-02-14T02:07:39.321Z,5.20
2019-02-14T02:10:10.605Z,5.20
2019-02-14T02:12:39.305Z,5.30
2019-02-14T02:15:11.421Z,5.20
2019-02-14T02:17:40.019Z,5.20
2019-02-14T02:20:10.314Z,5.20
2019-02-14T02:22:39.025Z,5.10
2019-02-14T02:25:10.395Z,5.10
2019-02-14T02:27:39.125Z,5.10
2019-02-14T02:30:13.135Z,5.20
2019-02-14T02:32:41.679Z,5.20
2019-02-14T02:35:10.311Z,5.20
2019-02-14T02:37:38.889Z,5.20
2019-02-14T02:40:08.993Z,5.20
2019-02-14T02:42:37.562Z,5.20
2019-02-14T02:45:09.471Z,5.10
2019-02-14T02:47:38.055Z,5.10
2019-02-14T02:50:09.429Z,5.10
2019-02-14T02:52:38.031Z,5.10
2019-02-14T02:55:08.359Z,5.10
2019-02-14T02:57:37.142Z,5.20
2019-02-14T03:00:11.601Z,5.30
2019-02-14T03:02:40.234Z,5.30
2019-02-14T03:05:11.247Z,5.30
2019-02-14T03:07:39.834Z,5.20
2019-02-14T03:10:14.526Z,5.20
2019-02-14T03:12:43.161Z,5.20
2019-02-14T03:15:14.188Z,5.00
2019-02-14T03:17:42.869Z,4.90
2019-02-14T03:20:12.693Z,5.10
2019-02-14T03:22:41.360Z,5.10
2019-02-14T03:25:15.610Z,5.00
2019-02-14T03:27:44.175Z,5.00
2019-02-14T03:30:16.704Z,5.00
2019-02-14T03:32:45.339Z,5.00
2019-02-14T03:35:13.999Z,4.80
2019-02-14T03:37:42.623Z,4.90
2019-02-14T03:40:12.921Z,5.00
2019-02-14T03:42:41.457Z,4.90
2019-02-14T03:45:13.237Z,4.70
2019-02-14T03:47:41.731Z,4.90
2019-02-14T03:50:11.685Z,4.90
2019-02-14T03:52:40.512Z,4.90
2019-02-14T03:55:10.336Z,4.90
2019-02-14T03:57:39.414Z,4.80
2019-02-14T04:00:13.703Z,4.70
2019-02-14T04:02:42.349Z,4.70
2019-02-14T04:05:11.206Z,4.80
2019-02-14T04:07:40.206Z,4.90
2019-02-14T04:10:13.689Z,5.00
2019-02-14T04:12:42.302Z,4.90
2019-02-14T04:15:13.128Z,4.90
2019-02-14T04:17:41.778Z,4.90
2019-02-14T04:20:11.161Z,4.90
2019-02-14T04:22:39.841Z,5.00
2019-02-14T04:25:09.992Z,4.90
2019-02-14T04:27:38.724Z,5.00
2019-02-14T04:30:12.715Z,5.30
2019-02-14T04:32:41.334Z,5.10
2019-02-14T04:35:10.322Z,5.00
2019-02-14T04:37:38.918Z,5.10
2019-02-14T04:40:10.325Z,4.80
2019-02-14T04:42:38.970Z,4.70
2019-02-14T04:45:09.315Z,4.70
2019-02-14T04:47:37.893Z,5.00
2019-02-14T04:50:08.776Z,5.00
2019-02-14T04:52:37.360Z,4.90
2019-02-14T04:55:09.120Z,4.60
2019-02-14T04:57:37.756Z,4.70
2019-02-14T05:00:14.850Z,4.60
2019-02-14T05:02:43.485Z,4.60
2019-02-14T05:05:12.184Z,4.60
2019-02-14T05:07:40.863Z,4.60
2019-02-14T05:10:11.140Z,4.70
2019-02-14T05:12:39.618Z,4.70
2019-02-14T05:15:10.769Z,4.70
2019-02-14T05:17:39.288Z,4.70
2019-02-14T05:20:11.912Z,4.70
2019-02-14T05:22:40.616Z,4.80
2019-02-14T05:25:10.031Z,4.70
2019-02-14T05:27:38.676Z,4.70
2019-02-14T05:30:15.984Z,4.70
2019-02-14T05:32:44.641Z,4.60
2019-02-14T05:35:13.331Z,4.70
2019-02-14T05:37:41.933Z,4.70
2019-02-14T05:40:11.595Z,4.60
2019-02-14T05:42:40.240Z,4.70
2019-02-14T05:45:11.208Z,4.70
2019-02-14T05:47:39.873Z,4.70
2019-02-14T05:50:15.293Z,4.40
2019-02-14T05:52:43.920Z,4.50
2019-02-14T05:55:15.321Z,4.40
2019-02-14T05:57:43.945Z,4.30
2019-02-14T06:00:17.959Z,4.40
2019-02-14T06:02:46.744Z,4.40
2019-02-14T06:05:15.391Z,4.60
2019-02-14T06:07:44.165Z,4.50
2019-02-14T06:10:12.930Z,4.50
2019-02-14T06:12:41.576Z,4.40
2019-02-14T06:15:11.700Z,4.40
2019-02-14T06:17:40.353Z,4.30
2019-02-14T06:20:10.617Z,4.40
2019-02-14T06:22:39.252Z,4.50
2019-02-14T06:25:10.270Z,4.40
2019-02-14T06:27:38.889Z,4.30
2019-02-14T06:30:13.354Z,4.40
2019-02-14T06:32:41.966Z,4.30
2019-02-14T06:35:11.564Z,4.20
2019-02-14T06:37:40.280Z,4.40
2019-02-14T06:40:13.542Z,4.30
2019-02-14T06:42:42.307Z,4.30
2019-02-14T06:45:16.428Z,4.30
2019-02-14T06:47:45.126Z,4.50
2019-02-14T06:50:13.820Z,4.70
2019-02-14T06:52:42.436Z,4.50
2019-02-14T06:55:11.122Z,4.20
2019-02-14T06:57:39.764Z,4.20
2019-02-14T07:00:14.281Z,4.30
2019-02-14T07:02:42.838Z,4.40
2019-02-14T07:05:11.546Z,4.50
2019-02-14T07:07:40.877Z,4.70
2019-02-14T07:10:11.278Z,4.70
2019-02-14T07:12:39.920Z,4.70
2019-02-14T07:15:11.364Z,4.70
2019-02-14T07:17:39.998Z,4.80
2019-02-14T07:20:11.723Z,4.90
2019-02-14T07:22:40.390Z,4.80
2019-02-14T07:25:11.107Z,4.90
2019-02-14T07:27:39.730Z,4.80
2019-02-14T07:30:20.648Z,4.90
2019-02-14T07:32:49.274Z,4.80
2019-02-14T07:35:17.974Z,5.00
2019-02-14T07:37:46.610Z,4.90
2019-02-14T07:40:15.604Z,4.80
2019-02-14T07:42:44.327Z,4.90
2019-02-14T07:45:15.150Z,5.00
2019-02-14T07:47:43.768Z,5.10
2019-02-14T07:50:13.365Z,5.20
2019-02-14T07:52:42.032Z,5.20
2019-02-14T07:55:12.508Z,5.10
2019-02-14T07:57:41.172Z,5.20
2019-02-14T08:00:21.776Z,5.20
2019-02-14T08:02:50.414Z,5.30
2019-02-14T08:05:19.063Z,5.30
2019-02-14T08:07:47.807Z,5.50
2019-02-14T08:10:17.656Z,5.60
2019-02-14T08:12:46.364Z,5.70
2019-02-14T08:15:15.486Z,6.00
2019-02-14T08:17:44.131Z,6.10
2019-02-14T08:20:15.278Z,6.10
2019-02-14T08:22:43.926Z,6.20
2019-02-14T08:25:13.641Z,6.10
2019-02-14T08:27:42.268Z,6.00
2019-02-14T08:30:18.711Z,6.10
2019-02-14T08:32:54.182Z,6.30
2019-02-14T08:35:22.554Z,6.50
2019-02-14T08:37:51.111Z,6.60
2019-02-14T08:40:29.184Z,6.80
2019-02-14T08:42:58.690Z,6.90
2019-02-14T08:45:27.442Z,7.20
2019-02-14T08:47:56.162Z,7.20
2019-02-14T08:50:24.715Z,7.40
2019-02-14T08:52:53.296Z,7.70
2019-02-14T08:55:21.880Z,7.70
2019-02-14T08:57:50.440Z,7.80
2019-02-14T09:00:18.998Z,7.90
2019-02-14T09:02:48.790Z,7.90
2019-02-14T09:05:17.403Z,8.20
2019-02-14T09:07:54.265Z,8.20
2019-02-14T09:10:17.236Z,8.00
2019-02-14T09:12:45.850Z,8.10
2019-02-14T09:15:15.240Z,8.20
2019-02-14T09:17:43.900Z,8.30
2019-02-14T09:20:17.892Z,8.30
2019-02-14T09:22:46.446Z,8.20
2019-02-14T09:25:15.127Z,8.30
2019-02-14T09:27:43.670Z,7.90
2019-02-14T09:30:16.507Z,8.20
2019-02-14T09:32:45.263Z,8.30
2019-02-14T09:35:13.889Z,8.40
2019-02-14T09:37:42.476Z,8.50
2019-02-14T09:40:13.505Z,8.70
2019-02-14T09:42:42.274Z,9.00
2019-02-14T09:45:13.130Z,9.20
2019-02-14T09:47:41.710Z,9.40
2019-02-14T09:50:12.404Z,9.60
2019-02-14T09:52:41.494Z,9.80
2019-02-14T09:55:14.299Z,10.30
2019-02-14T09:57:43.109Z,10.20
2019-02-14T10:00:14.322Z,10.30
2019-02-14T10:02:43.024Z,10.40
2019-02-14T10:05:11.726Z,10.50
2019-02-14T10:07:40.348Z,10.80
2019-02-14T10:10:14.974Z,11.20
2019-02-14T10:12:43.672Z,11.10
2019-02-14T10:15:12.423Z,11.40
2019-02-14T10:17:41.068Z,11.70
2019-02-14T10:20:12.673Z,11.80
2019-02-14T10:22:41.282Z,11.90
2019-02-14T10:25:10.210Z,12.00
2019-02-14T10:27:38.766Z,12.20
2019-02-14T10:30:21.322Z,11.90
2019-02-14T10:32:50.531Z,12.30
2019-02-14T10:35:21.244Z,12.40
2019-02-14T10:37:49.930Z,12.70
2019-02-14T10:40:18.515Z,12.60
2019-02-14T10:42:47.097Z,13.00
2019-02-14T10:45:20.846Z,13.10
2019-02-14T10:47:49.055Z,12.40
2019-02-14T10:50:17.765Z,12.60
2019-02-14T10:52:46.686Z,13.00
2019-02-14T10:55:16.381Z,13.50
2019-02-14T10:57:45.014Z,13.80
2019-02-14T11:00:24.514Z,14.00
2019-02-14T11:02:53.316Z,14.40
2019-02-14T11:05:22.073Z,14.60
2019-02-14T11:07:50.730Z,15.00
2019-02-14T11:10:19.426Z,15.20
2019-02-14T11:12:48.141Z,15.40
2019-02-14T11:15:25.206Z,15.40
2019-02-14T11:17:53.866Z,15.60
2019-02-14T11:20:22.566Z,15.70
2019-02-14T11:22:51.161Z,16.00
2019-02-14T11:25:22.764Z,16.20
2019-02-14T11:27:51.383Z,16.80
2019-02-14T11:30:20.091Z,17.20
2019-02-14T11:32:48.642Z,16.90
2019-02-14T11:35:17.202Z,16.20
2019-02-14T11:37:45.782Z,16.50
2019-02-14T11:40:14.987Z,16.90
2019-02-14T11:42:45.318Z,17.00
2019-02-14T11:45:22.191Z,16.90
2019-02-14T11:47:50.819Z,16.50
2019-02-14T11:50:19.513Z,16.30
2019-02-14T11:52:48.309Z,16.70
2019-02-14T11:55:16.935Z,16.40
2019-02-14T11:57:45.650Z,15.90
2019-02-14T12:00:27.023Z,16.20
2019-02-14T12:02:56.414Z,16.50
2019-02-14T12:05:25.215Z,16.70
2019-02-14T12:07:53.943Z,16.50
2019-02-14T12:10:22.674Z,16.40
2019-02-14T12:12:51.310Z,16.10
2019-02-14T12:15:19.974Z,16.10
2019-02-14T12:17:48.664Z,16.00
2019-02-14T12:20:22.175Z,16.20
2019-02-14T12:22:50.877Z,16.00
2019-02-14T12:25:28.131Z,16.30
2019-02-14T12:27:56.703Z,16.50
2019-02-14T12:30:25.331Z,16.70
2019-02-14T12:32:53.958Z,16.20
2019-02-14T12:35:22.634Z,16.20
2019-02-14T12:37:51.297Z,16.00
2019-02-14T12:40:20.065Z,16.00
2019-02-14T12:42:48.683Z,16.30
2019-02-14T12:45:26.081Z,16.50
2019-02-14T12:47:54.904Z,16.10
2019-02-14T12:50:23.651Z,16.30
2019-02-14T12:52:52.256Z,16.50
2019-02-14T12:55:20.880Z,16.30
2019-02-14T12:57:49.513Z,16.20
2019-02-14T13:00:23.851Z,16.40
2019-02-14T13:02:52.438Z,16.40
2019-02-14T13:05:21.133Z,16.30
2019-02-14T13:07:49.716Z,16.80
2019-02-14T13:10:19.073Z,16.80
2019-02-14T13:12:47.707Z,16.70
2019-02-14T13:15:25.359Z,17.10
2019-02-14T13:17:54.071Z,17.20
2019-02-14T13:20:22.677Z,17.20
2019-02-14T13:22:51.286Z,17.20
2019-02-14T13:25:20.010Z,17.20
2019-02-14T13:27:48.704Z,17.10
2019-02-14T13:30:19.947Z,17.00
2019-02-14T13:32:48.496Z,16.90
2019-02-14T13:35:17.141Z,17.10
2019-02-14T13:37:45.748Z,17.30
2019-02-14T13:40:14.500Z,17.40
2019-02-14T13:42:43.218Z,17.20
2019-02-14T13:45:14.520Z,17.00
2019-02-14T13:47:43.076Z,17.20
2019-02-14T13:50:12.866Z,17.30
2019-02-14T13:52:41.551Z,17.40
2019-02-14T13:55:10.855Z,17.80
2019-02-14T13:57:39.430Z,17.70
2019-02-14T14:00:14.251Z,17.90
2019-02-14T14:02:42.832Z,18.10
2019-02-14T14:05:11.390Z,18.20
2019-02-14T14:07:40.759Z,18.30
2019-02-14T14:10:10.310Z,18.30
2019-02-14T14:12:38.913Z,17.90
2019-02-14T14:15:09.630Z,17.70
2019-02-14T14:17:38.267Z,17.70
2019-02-14T14:20:08.063Z,17.20
2019-02-14T14:22:36.608Z,16.80
2019-02-14T14:25:07.660Z,16.40
2019-02-14T14:27:36.290Z,16.80
2019-02-14T14:30:12.570Z,17.30
2019-02-14T14:32:41.341Z,17.60
2019-02-14T14:35:11.337Z,18.00
2019-02-14T14:37:40.399Z,18.30
2019-02-14T14:40:20.408Z,18.50
2019-02-14T14:42:51.050Z,18.70
2019-02-14T14:45:36.518Z,19.00
2019-02-14T14:48:05.184Z,19.20
2019-02-14T14:50:33.736Z,18.90
2019-02-14T14:53:02.375Z,18.30
2019-02-14T14:55:30.962Z,18.20
2019-02-14T14:57:59.526Z,18.30
2019-02-14T15:00:28.094Z,18.10
2019-02-14T15:02:56.695Z,18.10
2019-02-14T15:05:25.262Z,18.30
2019-02-14T15:07:53.906Z,18.30
2019-02-14T15:10:22.577Z,18.30
2019-02-14T15:12:51.140Z,18.30
2019-02-14T15:15:19.762Z,18.20
2019-02-14T15:17:48.422Z,18.50
2019-02-14T15:20:16.978Z,18.80
2019-02-14T15:22:45.544Z,18.50
2019-02-14T15:25:14.127Z,18.70
2019-02-14T15:27:42.682Z,18.50
2019-02-14T15:30:11.314Z,18.60
2019-02-14T15:32:39.914Z,18.40
2019-02-14T15:35:09.376Z,18.10
2019-02-14T15:37:37.967Z,17.80
2019-02-14T15:40:09.995Z,17.50
2019-02-14T15:42:38.742Z,17.30
2019-02-14T15:45:08.538Z,17.10
2019-02-14T15:47:38.978Z,16.90
2019-02-14T15:50:09.140Z,16.90
2019-02-14T15:52:37.822Z,16.70
2019-02-14T15:55:07.940Z,16.50
2019-02-14T15:57:36.563Z,16.30
2019-02-14T16:00:10.726Z,16.20
2019-02-14T16:02:38.830Z,16.20
2019-02-14T16:05:08.269Z,15.70
2019-02-14T16:07:37.357Z,15.50
2019-02-14T16:10:17.588Z,15.50
2019-02-14T16:12:41.084Z,15.40
2019-02-14T16:15:10.307Z,15.20
2019-02-14T16:17:39.015Z,15.10
2019-02-14T16:20:08.616Z,15.20
2019-02-14T16:22:37.182Z,15.10
2019-02-14T16:25:07.725Z,14.80
2019-02-14T16:27:36.494Z,14.90
2019-02-14T16:30:09.398Z,15.00
2019-02-14T16:32:38.301Z,15.00
2019-02-14T16:35:07.910Z,14.90
2019-02-14T16:37:36.467Z,14.70
2019-02-14T16:40:08.011Z,14.60
2019-02-14T16:42:36.666Z,14.60
2019-02-14T16:45:07.675Z,14.60
2019-02-14T16:47:36.417Z,14.70
2019-02-14T16:50:07.884Z,14.50
2019-02-14T16:52:36.577Z,14.40
2019-02-14T16:55:07.200Z,14.30
2019-02-14T16:57:35.758Z,14.10
2019-02-14T17:00:06.028Z,14.10
2019-02-14T17:02:34.614Z,14.00
2019-02-14T17:05:03.332Z,13.90
2019-02-14T17:07:31.894Z,13.70
2019-02-14T17:10:00.508Z,13.70
2019-02-14T17:12:29.074Z,13.60
2019-02-14T17:14:57.721Z,13.50
2019-02-14T17:17:28.036Z,13.40
2019-02-14T17:19:56.878Z,13.10
2019-02-14T17:22:25.454Z,13.00
2019-02-14T17:24:54.129Z,13.00
2019-02-14T17:27:22.727Z,13.00
2019-02-14T17:29:51.360Z,12.70
2019-02-14T17:32:19.942Z,12.60
2019-02-14T17:34:48.640Z,12.30
2019-02-14T17:37:17.242Z,12.50
2019-02-14T17:39:45.835Z,12.50
2019-02-14T17:42:14.403Z,12.40
2019-02-14T17:44:42.985Z,12.30
2019-02-14T17:47:11.601Z,12.20
2019-02-14T17:49:40.200Z,12.30
2019-02-14T17:52:08.975Z,12.30
2019-02-14T17:54:38.188Z,12.40
2019-02-14T17:57:06.989Z,12.30
2019-02-14T17:59:35.713Z,12.00
2019-02-14T18:02:06.602Z,11.70
2019-02-14T18:04:35.261Z,11.60
2019-02-14T18:07:03.998Z,11.70
2019-02-14T18:09:33.549Z,11.70
2019-02-14T18:12:02.316Z,11.80
2019-02-14T18:14:30.897Z,12.00
2019-02-14T18:16:59.597Z,12.00
2019-02-14T18:19:28.177Z,11.80
2019-02-14T18:21:56.794Z,11.70
2019-02-14T18:24:25.396Z,11.60
2019-02-14T18:26:54.039Z,11.50
2019-02-14T18:29:22.693Z,11.40
2019-02-14T18:31:51.256Z,11.50
2019-02-14T18:34:19.858Z,11.40
2019-02-14T18:36:48.476Z,11.40
2019-02-14T18:39:17.221Z,11.30
2019-02-14T18:41:45.807Z,11.30
2019-02-14T18:44:14.567Z,11.30
2019-02-14T18:46:43.258Z,11.20
2019-02-14T18:49:11.965Z,11.10
2019-02-14T18:51:40.656Z,11.00
2019-02-14T18:54:09.347Z,11.00
2019-02-14T18:56:37.898Z,10.90
2019-02-14T18:59:06.637Z,10.90
2019-02-14T19:01:35.305Z,11.00
2019-02-14T19:04:04.022Z,10.90
2019-02-14T19:06:32.661Z,11.00
2019-02-14T19:09:01.350Z,10.90
2019-02-14T19:11:29.922Z,10.80
2019-02-14T19:13:58.549Z,10.80
2019-02-14T19:16:27.158Z,10.80
2019-02-14T19:18:55.825Z,10.70
2019-02-14T19:21:24.460Z,10.70
2019-02-14T19:23:53.141Z,10.60
2019-02-14T19:26:21.759Z,10.60
2019-02-14T19:28:50.393Z,10.40
2019-02-14T19:31:19.181Z,10.50
2019-02-14T19:33:47.793Z,10.40
2019-02-14T19:36:16.427Z,10.40
2019-02-14T19:38:45.194Z,10.30
2019-02-14T19:41:13.744Z,10.10
2019-02-14T19:43:42.767Z,10.10
2019-02-14T19:46:11.453Z,10.10
2019-02-14T19:48:40.080Z,9.90
2019-02-14T19:51:08.853Z,9.90
2019-02-14T19:53:39.099Z,9.70
2019-02-14T19:56:07.793Z,9.80
2019-02-14T19:58:36.535Z,10.00
2019-02-14T20:01:05.513Z,9.90
2019-02-14T20:03:34.078Z,9.70
2019-02-14T20:06:05.210Z,9.80
2019-02-14T20:08:48.508Z,9.90
2019-02-14T20:11:18.719Z,9.90
2019-02-14T20:13:49.641Z,9.80
2019-02-14T20:16:17.629Z,9.70
2019-02-14T20:18:46.199Z,9.80
2019-02-14T20:21:14.793Z,9.80
2019-02-14T20:23:43.434Z,9.80
2019-02-14T20:26:12.103Z,9.70
2019-02-14T20:28:42.355Z,9.70
2019-02-14T20:31:11.073Z,9.70
2019-02-14T20:33:39.765Z,9.70
2019-02-14T20:36:08.653Z,9.70
2019-02-14T20:38:37.399Z,9.50
2019-02-14T20:41:05.987Z,9.50
2019-02-14T20:43:34.566Z,9.60
2019-02-14T20:46:03.270Z,9.50
2019-02-14T20:48:31.817Z,9.50
2019-02-14T20:51:00.453Z,9.50
2019-02-14T20:53:30.101Z,9.40
2019-02-14T20:55:59.107Z,9.30
2019-02-14T20:58:27.821Z,9.20
2019-02-14T21:00:56.539Z,9.30
2019-02-14T21:03:25.163Z,9.30
2019-02-14T21:05:53.859Z,9.20
2019-02-14T21:08:22.582Z,9.20
2019-02-14T21:10:51.155Z,9.20
2019-02-14T21:13:19.775Z,9.00
2019-02-14T21:15:48.555Z,9.00
2019-02-14T21:18:19.941Z,9.00
2019-02-14T21:20:48.582Z,8.90
2019-02-14T21:23:17.244Z,8.70
2019-02-14T21:25:45.832Z,8.70
2019-02-14T21:28:14.549Z,8.80
2019-02-14T21:30:43.200Z,8.90
2019-02-14T21:33:11.803Z,8.90
2019-02-14T21:35:40.502Z,9.00
2019-02-14T21:38:09.383Z,8.90
2019-02-14T21:40:39.892Z,8.80
2019-02-14T21:43:08.516Z,8.70
2019-02-14T21:45:37.241Z,8.80
2019-02-14T21:48:05.965Z,8.60
2019-02-14T21:50:34.616Z,8.50
2019-02-14T21:53:03.198Z,8.60
2019-02-14T21:55:34.819Z,8.60
2019-02-14T21:58:04.910Z,8.70
2019-02-14T22:00:34.426Z,8.60
2019-02-14T22:03:03.058Z,8.50
2019-02-14T22:05:31.801Z,8.50
2019-02-14T22:08:00.605Z,8.50
2019-02-14T22:10:29.223Z,8.50
2019-02-14T22:12:57.766Z,8.50
2019-02-14T22:15:28.615Z,8.40
2019-02-14T22:17:57.354Z,8.30
2019-02-14T22:20:26.020Z,8.30
2019-02-14T22:22:54.737Z,8.30
2019-02-14T22:25:23.348Z,8.10
2019-02-14T22:27:52.070Z,8.10
2019-02-14T22:30:20.655Z,8.20
2019-02-14T22:32:49.300Z,8.20
2019-02-14T22:35:17.983Z,8.20
2019-02-14T22:37:46.786Z,8.20
2019-02-14T22:40:15.624Z,8.20
2019-02-14T22:42:47.627Z,8.30
2019-02-14T22:45:15.473Z,8.10
2019-02-14T22:47:47.041Z,8.00
2019-02-14T22:50:15.733Z,8.10
2019-02-14T22:52:44.379Z,8.10
2019-02-14T22:55:13.920Z,8.20
2019-02-14T22:57:42.530Z,8.20
2019-02-14T23:00:20.892Z,8.30
2019-02-14T23:02:49.647Z,8.30
2019-02-14T23:05:18.363Z,8.20
2019-02-14T23:07:46.956Z,8.10
2019-02-14T23:10:17.701Z,8.20
2019-02-14T23:12:55.158Z,8.10
2019-02-14T23:15:16.651Z,8.00
2019-02-14T23:17:45.223Z,8.00
2019-02-14T23:20:13.784Z,8.10
2019-02-14T23:22:42.361Z,8.10
2019-02-14T23:25:11.040Z,8.10
2019-02-14T23:27:39.618Z,8.10
2019-02-14T23:30:11.267Z,8.00
2019-02-14T23:32:39.966Z,8.00
2019-02-14T23:35:08.667Z,8.00
2019-02-14T23:37:37.407Z,7.90
2019-02-14T23:40:07.126Z,8.00
2019-02-14T23:42:35.631Z,8.00
2019-02-14T23:45:05.799Z,8.10
2019-02-14T23:47:34.422Z,8.00
2019-02-14T23:50:03.611Z,8.00
2019-02-14T23:52:32.230Z,8.10
2019-02-14T23:55:00.864Z,8.20
2019-02-14T23:57:29.520Z,8.20
2019-02-14T23:59:58.104Z,8.20
